Portada
METAR-TAF:

METAR-TAF

Aeroports :

Ghardaïa, Algèria

latitud: 32-23N, longitud: 003-49E, altitud: 450 m

Observació

L'informe es va fer fa 55 minuts, a les 17:00 UTC
Vent 10 kt del Sud-Est, variant entre Est/Sud-Est i Sud/Sud-Oest
Temperatura 27°C
Humitat 17%
Pressió 1006 hPa
Visibilitat 10 km o més
Núvols disperses a una alçada de 4600 ft

METAR: DAUG 231700Z 14010KT 110V200 9999 SCT046 27/00 Q1006

Hora: 18:55 (17:55 UTC)

Pronòstic

L'informe es va fer fa 55 minuts, a les 17:00 UTC
Pronòstic vàlid del 23 a les 18 UTC al 24 a les 18 UTC
Vent 9 kt del Sud
Visibilitat 10 km o més
Núvols disperses a una alçada de 4600 ft
Probabilitat 30% :
Temporalment
l' 24 a les 11 UTC al 24 a les 16 UTC
Vent 15 kt del Sud/Sud-Oest amb ràfegues de 25 kt
Visibilitat: 5000 m
torb baixa de sorra

TAF: DAUG 231700Z 2318/2418 17009KT 9999 SCT046 PROB30 TEMPO 2411/2416 20015G25KT 5000 DRSA

Observacions i pronòstics meteorològics de més de 4000 aeroports (METAR i TAF).

Les estacions disponibles són els punts grocs i vermells al mapa.

Posi el ratolí al punt desitjat per veure el nom de l'estació.

Feu clic per veure les observacions i els pronòstics meteorològics.

Per canviar el mapa: feu clic els botons verds amb una creu de color negre per apropar; al botó verd amb un guió per allunyar la imatge; o en les fletxes verdes per a mapes adjacents.


METAR-TAF: